createdAt,value
2023-03-12T00:01:48.132Z,1.50
2023-03-12T00:04:18.645Z,1.45
2023-03-12T00:06:49.153Z,1.00
2023-03-12T00:13:11.790Z,1.80
2023-03-12T00:15:42.476Z,1.00
2023-03-12T00:18:13.045Z,1.40
2023-03-12T00:20:43.409Z,1.45
2023-03-12T00:23:13.899Z,1.30
2023-03-12T00:25:46.792Z,2.08
2023-03-12T00:28:20.013Z,1.20
2023-03-12T00:30:52.187Z,1.23
2023-03-12T00:33:22.876Z,1.20
2023-03-12T00:35:53.291Z,1.10
2023-03-12T00:38:24.038Z,1.30
2023-03-12T00:40:54.511Z,1.15
2023-03-12T00:43:27.771Z,1.23
2023-03-12T00:45:58.395Z,0.90
2023-03-12T00:48:28.977Z,1.65
2023-03-12T00:50:59.597Z,1.00
2023-03-12T00:53:30.062Z,1.05
2023-03-12T00:56:00.811Z,1.42
2023-03-12T00:58:34.239Z,1.02
2023-03-12T01:01:04.786Z,1.00
2023-03-12T01:03:35.393Z,0.90
2023-03-12T01:06:06.128Z,0.98
2023-03-12T01:08:36.843Z,0.90
2023-03-12T01:11:07.857Z,1.63
2023-03-12T01:13:41.005Z,1.35
2023-03-12T01:16:11.924Z,1.30
2023-03-12T01:18:42.621Z,0.90
2023-03-12T01:21:13.142Z,1.35
2023-03-12T01:23:43.703Z,1.05
2023-03-12T01:26:14.358Z,0.90
2023-03-12T01:28:47.770Z,1.15
2023-03-12T01:31:21.154Z,0.95
2023-03-12T01:33:53.140Z,0.93
2023-03-12T01:36:25.390Z,0.80
2023-03-12T01:38:58.277Z,0.80
2023-03-12T01:41:32.536Z,1.00
2023-03-12T01:44:06.826Z,1.13
2023-03-12T01:46:38.853Z,0.90
2023-03-12T01:49:19.027Z,0.82
2023-03-12T01:51:55.382Z,1.23
2023-03-12T01:54:33.018Z,1.23
2023-03-12T01:57:04.224Z,1.10
2023-03-12T01:59:42.095Z,0.90
2023-03-12T02:02:12.626Z,2.20
2023-03-12T02:04:46.026Z,1.92
2023-03-12T02:07:18.569Z,1.10
2023-03-12T02:09:51.982Z,1.40
2023-03-12T02:12:22.621Z,1.35
2023-03-12T02:14:56.265Z,1.05
2023-03-12T02:17:27.407Z,1.27
2023-03-12T02:20:08.129Z,1.67
2023-03-12T02:22:40.402Z,0.73
2023-03-12T02:25:33.657Z,1.10
2023-03-12T02:28:07.149Z,1.35
2023-03-12T02:33:11.833Z,1.08
2023-03-12T02:35:42.533Z,1.00
2023-03-12T02:38:36.501Z,0.90
2023-03-12T02:41:15.622Z,1.00
2023-03-12T02:43:48.874Z,1.05
2023-03-12T02:46:20.309Z,0.80
2023-03-12T02:48:51.085Z,1.00
2023-03-12T02:51:22.151Z,1.05
2023-03-12T02:53:55.195Z,1.05
2023-03-12T02:56:31.982Z,0.90
2023-03-12T02:59:04.469Z,1.08
2023-03-12T03:01:38.296Z,1.17
2023-03-12T03:04:10.540Z,0.98
2023-03-12T03:06:44.176Z,1.00
2023-03-12T03:11:48.706Z,1.10
2023-03-12T03:14:19.789Z,1.20
2023-03-12T03:16:53.048Z,1.27
2023-03-12T03:19:26.308Z,0.70
2023-03-12T03:21:57.016Z,1.20
2023-03-12T03:24:27.751Z,1.00
2023-03-12T03:27:00.894Z,1.45
2023-03-12T03:29:31.656Z,0.60
2023-03-12T03:32:03.143Z,1.08
2023-03-12T03:34:33.812Z,1.10
2023-03-12T03:37:04.335Z,0.95
2023-03-12T03:39:36.443Z,0.80
2023-03-12T03:42:09.978Z,0.90
2023-03-12T03:44:40.681Z,1.15
2023-03-12T03:47:11.386Z,1.00
2023-03-12T03:49:42.067Z,1.08
2023-03-12T03:52:12.669Z,1.27
2023-03-12T03:54:43.309Z,1.15
2023-03-12T03:57:16.779Z,1.05
2023-03-12T03:59:47.337Z,1.20
2023-03-12T04:02:18.621Z,0.90
2023-03-12T04:04:49.215Z,0.98
2023-03-12T04:07:21.401Z,1.15
2023-03-12T04:09:52.215Z,1.40
2023-03-12T04:12:26.162Z,1.40
2023-03-12T04:14:56.838Z,1.00
2023-03-12T04:17:27.453Z,1.00
2023-03-12T04:20:00.592Z,1.23
2023-03-12T04:22:31.236Z,1.13
2023-03-12T04:25:01.872Z,1.20
2023-03-12T04:27:35.308Z,1.85
2023-03-12T04:30:06.752Z,1.30
2023-03-12T04:32:39.119Z,1.15
2023-03-12T04:35:10.499Z,1.42
2023-03-12T04:37:40.971Z,1.13
2023-03-12T04:40:14.041Z,1.13
2023-03-12T04:42:48.058Z,1.33
2023-03-12T04:45:19.383Z,1.40
2023-03-12T04:47:51.261Z,1.27
2023-03-12T04:50:22.308Z,1.27
2023-03-12T04:52:52.940Z,1.50
2023-03-12T04:55:23.647Z,1.45
2023-03-12T04:57:57.230Z,1.17
2023-03-12T05:00:28.605Z,1.10
2023-03-12T05:02:59.747Z,1.10
2023-03-12T05:05:30.907Z,1.23
2023-03-12T05:08:02.116Z,0.90
2023-03-12T05:10:33.200Z,1.02
2023-03-12T05:13:06.719Z,1.08
2023-03-12T05:15:40.049Z,1.20
2023-03-12T05:18:10.624Z,1.05
2023-03-12T05:20:41.577Z,1.40
2023-03-12T05:23:12.145Z,1.00
2023-03-12T05:25:43.224Z,1.00
2023-03-12T05:28:16.679Z,0.90
2023-03-12T05:30:47.253Z,1.00
2023-03-12T05:33:18.016Z,1.27
2023-03-12T05:35:48.678Z,0.98
2023-03-12T05:38:19.436Z,2.00
2023-03-12T05:40:55.982Z,1.15
2023-03-12T05:43:30.512Z,1.20
2023-03-12T05:48:33.345Z,1.00
2023-03-12T05:51:04.329Z,0.93
2023-03-12T05:53:36.703Z,1.17
2023-03-12T05:56:08.263Z,0.88
2023-03-12T05:58:41.886Z,1.45
2023-03-12T06:01:18.106Z,1.10
2023-03-12T06:03:49.640Z,1.10
2023-03-12T06:06:20.793Z,1.00
2023-03-12T06:08:51.620Z,1.27
2023-03-12T06:11:22.422Z,0.98
2023-03-12T06:13:55.753Z,1.33
2023-03-12T06:16:28.481Z,0.87
2023-03-12T06:19:00.900Z,0.98
2023-03-12T06:21:33.956Z,0.90
2023-03-12T06:24:05.779Z,1.10
2023-03-12T06:26:47.511Z,1.25
2023-03-12T06:29:20.613Z,1.05
2023-03-12T06:31:52.406Z,1.00
2023-03-12T06:34:22.991Z,1.08
2023-03-12T06:36:53.606Z,0.80
2023-03-12T06:39:24.499Z,0.80
2023-03-12T06:41:55.025Z,0.90
2023-03-12T06:44:28.167Z,0.90
2023-03-12T06:46:58.912Z,0.85
2023-03-12T06:49:32.288Z,1.10
2023-03-12T06:52:02.936Z,1.02
2023-03-12T06:54:33.612Z,1.38
2023-03-12T06:57:04.169Z,1.35
2023-03-12T06:59:37.246Z,1.05
2023-03-12T07:02:08.040Z,2.00
2023-03-12T07:04:38.699Z,1.00
2023-03-12T07:07:09.438Z,1.00
2023-03-12T07:09:40.059Z,0.82
2023-03-12T07:12:11.715Z,1.10
2023-03-12T07:14:44.948Z,1.08
2023-03-12T07:17:15.692Z,1.10
2023-03-12T07:19:48.111Z,1.05
2023-03-12T07:22:19.851Z,0.80
2023-03-12T07:24:51.406Z,0.95
2023-03-12T07:27:22.376Z,1.13
2023-03-12T07:29:55.466Z,1.38
2023-03-12T07:32:26.457Z,1.70
2023-03-12T07:34:57.109Z,1.00
2023-03-12T07:37:27.588Z,1.00
2023-03-12T07:39:58.375Z,1.13
2023-03-12T07:42:29.336Z,1.40
2023-03-12T07:45:04.300Z,1.38
2023-03-12T07:50:05.574Z,1.38
2023-03-12T07:52:36.208Z,1.80
2023-03-12T07:55:07.243Z,1.20
2023-03-12T07:57:38.034Z,1.60
2023-03-12T08:00:13.082Z,1.30
2023-03-12T08:02:44.142Z,1.30
2023-03-12T08:05:14.922Z,1.33
2023-03-12T08:07:45.556Z,1.35
2023-03-12T08:10:16.136Z,1.30
2023-03-12T08:12:47.040Z,1.10
2023-03-12T08:15:20.631Z,1.48
2023-03-12T08:17:51.514Z,1.40
2023-03-12T08:20:22.343Z,1.42
2023-03-12T08:22:52.976Z,1.45
2023-03-12T08:25:24.943Z,1.23
2023-03-12T08:27:55.734Z,1.20
2023-03-12T08:30:30.302Z,1.02
2023-03-12T08:33:01.223Z,1.40
2023-03-12T08:35:32.172Z,1.33
2023-03-12T08:38:02.865Z,1.08
2023-03-12T08:40:33.534Z,1.45
2023-03-12T08:43:04.275Z,0.93
2023-03-12T08:45:38.234Z,0.90
2023-03-12T08:48:10.051Z,1.20
2023-03-12T08:50:40.780Z,0.77
2023-03-12T08:53:12.110Z,1.20
2023-03-12T08:55:42.951Z,0.73
2023-03-12T08:58:13.513Z,0.80
2023-03-12T09:00:47.058Z,0.88
2023-03-12T09:03:18.074Z,0.75
2023-03-12T09:05:49.088Z,0.70
2023-03-12T09:08:20.296Z,1.15
2023-03-12T09:10:51.858Z,1.02
2023-03-12T09:13:22.796Z,0.90
2023-03-12T09:15:56.077Z,0.70
2023-03-12T09:18:27.063Z,0.88
2023-03-12T09:20:58.995Z,0.95
2023-03-12T09:23:30.549Z,0.90
2023-03-12T09:26:01.336Z,0.60
2023-03-12T09:28:31.949Z,1.13
2023-03-12T09:31:08.331Z,0.70
2023-03-12T09:33:39.008Z,1.02
2023-03-12T09:36:10.142Z,0.90
2023-03-12T09:38:40.700Z,0.90
2023-03-12T09:41:21.142Z,1.20
2023-03-12T09:43:57.087Z,0.80
2023-03-12T09:46:37.760Z,1.00
2023-03-12T09:49:19.089Z,0.70
2023-03-12T09:51:54.171Z,1.08
2023-03-12T09:54:31.236Z,0.85
2023-03-12T09:57:05.710Z,0.95
2023-03-12T09:59:37.094Z,1.10
2023-03-12T10:02:27.751Z,1.00
2023-03-12T10:05:02.214Z,1.00
2023-03-12T10:07:37.827Z,1.35
2023-03-12T10:10:33.018Z,0.95
2023-03-12T10:13:21.884Z,0.93
2023-03-12T10:16:04.770Z,0.70
2023-03-12T10:18:56.088Z,1.20
2023-03-12T10:21:37.703Z,1.27
2023-03-12T10:24:25.315Z,1.10
2023-03-12T10:27:01.958Z,1.35
2023-03-12T10:29:35.718Z,1.05
2023-03-12T10:32:11.257Z,1.30
2023-03-12T10:34:48.469Z,0.77
2023-03-12T10:37:24.823Z,0.90
2023-03-12T10:39:56.385Z,0.75
2023-03-12T10:42:28.296Z,1.45
2023-03-12T10:45:02.978Z,1.10
2023-03-12T10:47:38.579Z,0.80
2023-03-12T10:50:23.828Z,0.75
2023-03-12T10:52:57.341Z,1.02
2023-03-12T10:55:30.071Z,1.20
2023-03-12T10:58:01.064Z,1.13
2023-03-12T11:00:33.968Z,0.90
2023-03-12T11:03:07.018Z,1.30
2023-03-12T11:05:51.385Z,0.93
2023-03-12T11:08:24.913Z,1.10
2023-03-12T11:10:56.269Z,1.23
2023-03-12T11:13:31.517Z,1.15
2023-03-12T11:16:03.814Z,1.27
2023-03-12T11:18:37.252Z,1.23
2023-03-12T11:21:22.284Z,0.80
2023-03-12T11:24:10.014Z,1.70
2023-03-12T11:26:49.402Z,1.10
2023-03-12T11:29:28.392Z,0.82
2023-03-12T11:32:08.048Z,1.02
2023-03-12T11:34:41.492Z,0.90
2023-03-12T11:37:24.029Z,0.93
2023-03-12T11:40:12.620Z,1.13
2023-03-12T11:42:56.106Z,1.08
2023-03-12T11:45:32.455Z,0.88
2023-03-12T11:48:15.878Z,1.33
2023-03-12T11:50:56.261Z,0.90
2023-03-12T11:53:43.196Z,0.80
2023-03-12T11:56:27.860Z,1.10
2023-03-12T11:59:28.965Z,0.88
2023-03-12T12:02:14.730Z,1.23
2023-03-12T12:05:21.181Z,1.00
2023-03-12T12:08:03.452Z,1.13
2023-03-12T12:10:45.495Z,0.88
2023-03-12T12:13:27.125Z,1.23
2023-03-12T12:16:10.581Z,1.08
2023-03-12T12:19:03.440Z,1.05
2023-03-12T12:21:55.569Z,0.88
2023-03-12T12:24:40.707Z,0.75
2023-03-12T12:27:22.642Z,2.13
2023-03-12T12:30:09.371Z,0.90
2023-03-12T12:32:55.384Z,0.88
2023-03-12T12:35:33.211Z,1.00
2023-03-12T12:38:09.868Z,0.95
2023-03-12T12:40:43.706Z,1.05
2023-03-12T12:43:28.365Z,1.15
2023-03-12T12:46:03.018Z,1.00
2023-03-12T12:48:39.620Z,1.02
2023-03-12T12:51:12.452Z,1.10
2023-03-12T12:53:50.585Z,1.05
2023-03-12T12:56:32.064Z,0.90
2023-03-12T12:59:25.130Z,1.10
2023-03-12T13:01:57.493Z,1.10
2023-03-12T13:04:31.187Z,0.75
2023-03-12T13:07:07.041Z,0.70
2023-03-12T13:09:43.931Z,0.60
2023-03-12T13:12:23.323Z,0.60
2023-03-12T13:14:57.809Z,0.90
2023-03-12T13:17:31.687Z,1.20
2023-03-12T13:20:20.996Z,1.38
2023-03-12T13:23:03.940Z,1.05
2023-03-12T13:25:50.325Z,1.15
2023-03-12T13:28:35.102Z,1.10
2023-03-12T13:31:39.289Z,0.90
2023-03-12T13:34:54.782Z,1.40
2023-03-12T13:37:50.780Z,1.60
2023-03-12T13:40:37.850Z,1.13
2023-03-12T13:43:15.608Z,1.10
2023-03-12T13:46:03.257Z,0.70
2023-03-12T13:48:38.817Z,1.42
2023-03-12T13:51:19.717Z,1.20
2023-03-12T13:53:53.001Z,1.27
2023-03-12T13:56:29.235Z,1.70
2023-03-12T13:59:04.296Z,2.03
2023-03-12T14:01:39.676Z,1.02
2023-03-12T14:04:20.308Z,1.02
2023-03-12T14:07:01.811Z,1.13
2023-03-12T14:09:43.121Z,0.90
2023-03-12T14:12:21.649Z,1.92
2023-03-12T14:15:10.381Z,1.23
2023-03-12T14:17:42.426Z,0.60
2023-03-12T14:20:21.615Z,0.80
2023-03-12T14:22:57.376Z,1.52
2023-03-12T14:25:38.218Z,1.17
2023-03-12T14:28:16.399Z,1.00
2023-03-12T14:30:53.456Z,1.45
2023-03-12T14:33:29.045Z,0.82
2023-03-12T14:36:10.269Z,1.00
2023-03-12T14:38:44.058Z,0.93
2023-03-12T14:41:19.473Z,1.02
2023-03-12T14:43:54.819Z,1.00
2023-03-12T14:46:27.486Z,1.13
2023-03-12T14:48:58.147Z,1.55
2023-03-12T14:51:33.423Z,0.85
2023-03-12T14:54:05.606Z,1.08
2023-03-12T14:56:37.370Z,1.20
2023-03-12T14:59:25.574Z,0.90
2023-03-12T15:02:02.704Z,0.95
2023-03-12T15:04:36.170Z,0.60
2023-03-12T15:07:14.472Z,0.73
2023-03-12T15:09:49.983Z,0.60
2023-03-12T15:12:23.681Z,0.82
2023-03-12T15:14:58.604Z,1.10
2023-03-12T15:17:32.204Z,0.73
2023-03-12T15:20:09.505Z,1.10
2023-03-12T15:22:44.175Z,1.25
2023-03-12T15:25:28.656Z,1.02
2023-03-12T15:28:09.464Z,0.85
2023-03-12T15:30:42.064Z,0.60
2023-03-12T15:33:14.913Z,0.90
2023-03-12T15:36:02.286Z,1.45
2023-03-12T15:38:38.433Z,1.40
2023-03-12T15:41:12.270Z,1.40
2023-03-12T15:43:47.998Z,0.82
2023-03-12T15:46:21.300Z,1.10
2023-03-12T15:48:54.171Z,0.50
2023-03-12T15:51:37.140Z,0.80
2023-03-12T15:54:28.611Z,1.00
2023-03-12T15:57:14.956Z,1.23
2023-03-12T15:59:46.337Z,1.38
2023-03-12T16:02:16.944Z,1.33
2023-03-12T16:04:50.064Z,1.50
2023-03-12T16:07:20.799Z,2.00
2023-03-12T16:09:54.143Z,1.67
2023-03-12T16:12:25.007Z,1.20
2023-03-12T16:14:56.149Z,1.40
2023-03-12T16:17:26.872Z,1.48
2023-03-12T16:19:57.601Z,1.50
2023-03-12T16:22:29.072Z,1.75
2023-03-12T16:25:02.737Z,1.40
2023-03-12T16:27:39.194Z,1.65
2023-03-12T16:30:17.796Z,2.45
2023-03-12T16:32:48.522Z,2.17
2023-03-12T16:35:21.338Z,2.70
2023-03-12T16:37:52.634Z,2.78
2023-03-12T16:40:33.281Z,1.50
2023-03-12T16:43:06.870Z,1.85
2023-03-12T16:45:39.317Z,1.10
2023-03-12T16:48:10.190Z,1.55
2023-03-12T16:50:40.961Z,1.55
2023-03-12T16:53:14.624Z,1.55
2023-03-12T16:55:52.867Z,1.40
2023-03-12T16:58:25.110Z,2.25
2023-03-12T17:01:00.210Z,1.92
2023-03-12T17:03:36.565Z,1.63
2023-03-12T17:06:09.405Z,1.88
2023-03-12T17:08:40.206Z,1.88
2023-03-12T17:11:19.808Z,1.92
2023-03-12T17:13:53.658Z,1.42
2023-03-12T17:16:24.426Z,1.60
2023-03-12T17:18:55.538Z,1.67
2023-03-12T17:21:26.400Z,2.15
2023-03-12T17:24:11.961Z,1.73
2023-03-12T17:26:46.533Z,1.27
2023-03-12T17:31:47.604Z,1.38
2023-03-12T17:34:18.582Z,1.27
2023-03-12T17:36:49.145Z,1.55
2023-03-12T17:39:20.277Z,1.52
2023-03-12T17:41:53.622Z,1.55
2023-03-12T17:44:24.357Z,1.27
2023-03-12T17:46:59.744Z,1.55
2023-03-12T17:49:30.770Z,1.50
2023-03-12T17:52:02.194Z,1.70
2023-03-12T17:54:33.062Z,1.88
2023-03-12T17:57:06.415Z,1.95
2023-03-12T17:59:36.957Z,2.37
2023-03-12T18:02:07.471Z,2.15
2023-03-12T18:04:38.075Z,3.22
2023-03-12T18:07:08.645Z,2.55
2023-03-12T18:09:39.243Z,3.08
2023-03-12T18:12:13.001Z,3.03
2023-03-12T18:14:43.951Z,3.28
2023-03-12T18:17:14.974Z,3.67
2023-03-12T18:19:46.056Z,2.63
2023-03-12T18:22:24.805Z,3.30
2023-03-12T18:24:59.983Z,2.83
2023-03-12T18:27:34.563Z,2.33
2023-03-12T18:30:06.135Z,2.83
2023-03-12T18:32:39.548Z,2.83
2023-03-12T18:35:13.283Z,2.80
2023-03-12T18:37:46.655Z,2.63
2023-03-12T18:40:17.234Z,3.27
2023-03-12T18:42:53.211Z,3.92
2023-03-12T18:45:26.057Z,2.20
2023-03-12T18:47:59.772Z,3.10
2023-03-12T18:50:32.570Z,2.15
2023-03-12T18:53:19.942Z,4.10
2023-03-12T18:55:55.432Z,4.07
2023-03-12T18:58:40.196Z,2.60
2023-03-12T19:01:19.009Z,3.35
2023-03-12T19:03:51.266Z,3.53
2023-03-12T19:06:29.643Z,2.30
2023-03-12T19:11:44.627Z,2.55
2023-03-12T19:14:21.142Z,2.42
2023-03-12T19:16:51.630Z,2.50
2023-03-12T19:19:22.553Z,2.40
2023-03-12T19:21:53.329Z,2.10
2023-03-12T19:24:24.078Z,2.38
2023-03-12T19:26:54.831Z,2.63
2023-03-12T19:29:28.313Z,2.50
2023-03-12T19:31:59.244Z,2.22
2023-03-12T19:34:30.104Z,2.40
2023-03-12T19:37:00.670Z,1.77
2023-03-12T19:39:31.246Z,1.80
2023-03-12T19:42:01.947Z,1.90
2023-03-12T19:44:38.981Z,1.80
2023-03-12T19:47:09.881Z,3.03
2023-03-12T19:49:40.963Z,2.08
2023-03-12T19:52:14.135Z,2.67
2023-03-12T19:54:51.707Z,2.22
2023-03-12T19:57:26.142Z,2.25
2023-03-12T19:59:59.944Z,3.22
2023-03-12T20:02:30.757Z,2.70
2023-03-12T20:05:03.729Z,2.45
2023-03-12T20:07:34.730Z,3.00
2023-03-12T20:10:05.758Z,3.20
2023-03-12T20:12:36.509Z,2.97
2023-03-12T20:15:11.096Z,3.63
2023-03-12T20:17:42.192Z,3.00
2023-03-12T20:20:14.376Z,2.90
2023-03-12T20:22:44.941Z,2.00
2023-03-12T20:25:15.516Z,3.40
2023-03-12T20:27:46.319Z,2.20
2023-03-12T20:30:19.562Z,2.10
2023-03-12T20:32:50.227Z,1.90
2023-03-12T20:35:21.059Z,2.10
2023-03-12T20:37:52.172Z,2.30
2023-03-12T20:40:22.963Z,2.55
2023-03-12T20:42:53.730Z,3.25
2023-03-12T20:45:27.013Z,2.88
2023-03-12T20:47:58.790Z,2.90
2023-03-12T20:50:29.373Z,2.20
2023-03-12T20:52:59.785Z,2.15
2023-03-12T20:55:30.609Z,1.60
2023-03-12T20:58:01.599Z,2.10
2023-03-12T21:00:34.889Z,1.98
2023-03-12T21:03:05.361Z,2.00
2023-03-12T21:05:35.945Z,2.10
2023-03-12T21:08:06.956Z,1.55
2023-03-12T21:10:39.231Z,1.50
2023-03-12T21:13:09.793Z,2.22
2023-03-12T21:15:43.012Z,1.90
2023-03-12T21:18:13.638Z,1.92
2023-03-12T21:20:45.518Z,2.95
2023-03-12T21:23:16.311Z,2.28
2023-03-12T21:25:46.802Z,2.17
2023-03-12T21:28:18.325Z,2.60
2023-03-12T21:30:51.472Z,2.05
2023-03-12T21:33:22.053Z,2.47
2023-03-12T21:35:52.678Z,2.85
2023-03-12T21:38:23.608Z,2.47
2023-03-12T21:40:57.500Z,3.42
2023-03-12T21:43:28.409Z,2.70
2023-03-12T21:46:06.265Z,3.25
2023-03-12T21:48:37.116Z,3.45
2023-03-12T21:51:10.369Z,2.80
2023-03-12T21:53:41.751Z,2.47
2023-03-12T21:56:12.968Z,2.72
2023-03-12T21:58:44.423Z,3.03
2023-03-12T22:01:19.533Z,2.60
2023-03-12T22:03:50.378Z,2.35
2023-03-12T22:06:20.980Z,2.80
2023-03-12T22:08:52.468Z,2.70
2023-03-12T22:11:23.055Z,2.63
2023-03-12T22:13:53.601Z,2.22
2023-03-12T22:16:26.976Z,1.98
2023-03-12T22:18:57.530Z,1.67
2023-03-12T22:21:28.840Z,1.92
2023-03-12T22:24:00.007Z,2.10
2023-03-12T22:26:31.021Z,2.30
2023-03-12T22:29:02.304Z,2.38
2023-03-12T22:31:35.821Z,2.50
2023-03-12T22:34:06.928Z,2.22
2023-03-12T22:36:37.597Z,2.00
2023-03-12T22:39:08.540Z,1.95
2023-03-12T22:41:39.267Z,1.80
2023-03-12T22:44:10.587Z,2.08
2023-03-12T22:46:43.901Z,1.77
2023-03-12T22:49:14.448Z,1.83
2023-03-12T22:51:45.201Z,1.65
2023-03-12T22:54:15.752Z,1.77
2023-03-12T22:56:46.260Z,2.08
2023-03-12T22:59:16.797Z,0.93
2023-03-12T23:01:49.913Z,1.55
2023-03-12T23:04:20.549Z,1.83
2023-03-12T23:06:51.742Z,1.73
2023-03-12T23:09:24.805Z,1.57
2023-03-12T23:11:55.428Z,1.27
2023-03-12T23:14:26.011Z,2.40
2023-03-12T23:17:00.149Z,1.48
2023-03-12T23:19:35.093Z,2.65
2023-03-12T23:22:05.635Z,1.33
2023-03-12T23:24:36.341Z,1.30
2023-03-12T23:27:07.418Z,1.60
2023-03-12T23:29:38.224Z,1.60
2023-03-12T23:32:11.594Z,1.48
2023-03-12T23:34:42.154Z,1.77
2023-03-12T23:37:12.931Z,1.67
2023-03-12T23:39:54.031Z,1.10
2023-03-12T23:42:25.474Z,1.33
2023-03-12T23:44:55.949Z,1.40
2023-03-12T23:47:29.049Z,1.00
2023-03-12T23:49:59.802Z,1.52
2023-03-12T23:52:30.432Z,1.40
2023-03-12T23:55:01.242Z,1.63
2023-03-12T23:57:32.385Z,1.50
